sensor_id;sensor_type;location;lat;lon;timestamp;P1;durP1;ratioP1;P2;durP2;ratioP2
16845;SDS011;8539;53.188;8.696;2023-06-14T00:01:03;5.32;;;2.70;;
16845;SDS011;8539;53.188;8.696;2023-06-14T00:03:31;5.90;;;2.10;;
16845;SDS011;8539;53.188;8.696;2023-06-14T00:05:59;6.95;;;2.10;;
16845;SDS011;8539;53.188;8.696;2023-06-14T00:08:25;7.97;;;2.20;;
16845;SDS011;8539;53.188;8.696;2023-06-14T00:10:51;5.68;;;2.63;;
16845;SDS011;8539;53.188;8.696;2023-06-14T00:13:18;3.13;;;2.17;;
16845;SDS011;8539;53.188;8.696;2023-06-14T00:15:44;4.72;;;2.00;;
16845;SDS011;8539;53.188;8.696;2023-06-14T00:18:12;3.42;;;1.90;;
16845;SDS011;8539;53.188;8.696;2023-06-14T00:20:38;4.25;;;1.98;;
16845;SDS011;8539;53.188;8.696;2023-06-14T00:23:04;4.38;;;3.13;;
16845;SDS011;8539;53.188;8.696;2023-06-14T00:25:31;4.75;;;2.45;;
16845;SDS011;8539;53.188;8.696;2023-06-14T00:27:57;4.82;;;2.28;;
16845;SDS011;8539;53.188;8.696;2023-06-14T00:30:24;4.32;;;2.80;;
16845;SDS011;8539;53.188;8.696;2023-06-14T00:32:50;4.43;;;2.40;;
16845;SDS011;8539;53.188;8.696;2023-06-14T00:35:17;5.60;;;2.58;;
16845;SDS011;8539;53.188;8.696;2023-06-14T00:37:43;4.10;;;2.38;;
16845;SDS011;8539;53.188;8.696;2023-06-14T00:40:09;3.08;;;2.50;;
16845;SDS011;8539;53.188;8.696;2023-06-14T00:42:35;7.07;;;2.95;;
16845;SDS011;8539;53.188;8.696;2023-06-14T00:45:01;7.10;;;2.75;;
16845;SDS011;8539;53.188;8.696;2023-06-14T00:47:28;4.90;;;2.70;;
16845;SDS011;8539;53.188;8.696;2023-06-14T00:49:54;4.53;;;2.50;;
16845;SDS011;8539;53.188;8.696;2023-06-14T00:52:22;4.57;;;2.47;;
16845;SDS011;8539;53.188;8.696;2023-06-14T00:54:49;6.97;;;2.65;;
16845;SDS011;8539;53.188;8.696;2023-06-14T00:57:15;5.93;;;2.75;;
16845;SDS011;8539;53.188;8.696;2023-06-14T00:59:46;5.78;;;3.17;;
16845;SDS011;8539;53.188;8.696;2023-06-14T01:02:14;4.30;;;2.60;;
16845;SDS011;8539;53.188;8.696;2023-06-14T01:04:41;4.55;;;2.35;;
16845;SDS011;8539;53.188;8.696;2023-06-14T01:10:56;9.30;;;3.20;;
16845;SDS011;8539;53.188;8.696;2023-06-14T01:13:20;12.98;;;2.97;;
16845;SDS011;8539;53.188;8.696;2023-06-14T01:16:07;3.25;;;2.45;;
16845;SDS011;8539;53.188;8.696;2023-06-14T01:18:34;3.28;;;2.60;;
16845;SDS011;8539;53.188;8.696;2023-06-14T01:21:01;4.28;;;3.05;;
16845;SDS011;8539;53.188;8.696;2023-06-14T01:23:31;4.43;;;2.92;;
16845;SDS011;8539;53.188;8.696;2023-06-14T01:25:58;5.80;;;3.00;;
16845;SDS011;8539;53.188;8.696;2023-06-14T01:28:25;5.28;;;2.45;;
16845;SDS011;8539;53.188;8.696;2023-06-14T01:30:58;3.22;;;2.85;;
16845;SDS011;8539;53.188;8.696;2023-06-14T01:33:29;7.68;;;2.83;;
16845;SDS011;8539;53.188;8.696;2023-06-14T01:35:56;9.15;;;3.60;;
16845;SDS011;8539;53.188;8.696;2023-06-14T01:38:24;4.45;;;3.35;;
16845;SDS011;8539;53.188;8.696;2023-06-14T01:40:53;4.68;;;2.70;;
16845;SDS011;8539;53.188;8.696;2023-06-14T01:43:22;4.00;;;2.90;;
16845;SDS011;8539;53.188;8.696;2023-06-14T01:45:50;5.15;;;2.85;;
16845;SDS011;8539;53.188;8.696;2023-06-14T01:48:17;6.43;;;3.15;;
16845;SDS011;8539;53.188;8.696;2023-06-14T01:50:44;7.03;;;3.45;;
16845;SDS011;8539;53.188;8.696;2023-06-14T01:53:10;5.68;;;2.97;;
16845;SDS011;8539;53.188;8.696;2023-06-14T01:55:36;6.97;;;3.30;;
16845;SDS011;8539;53.188;8.696;2023-06-14T01:58:03;5.78;;;4.28;;
16845;SDS011;8539;53.188;8.696;2023-06-14T02:00:30;5.22;;;3.00;;
16845;SDS011;8539;53.188;8.696;2023-06-14T02:02:57;7.88;;;3.85;;
16845;SDS011;8539;53.188;8.696;2023-06-14T02:05:24;5.80;;;2.70;;
16845;SDS011;8539;53.188;8.696;2023-06-14T02:07:50;6.18;;;3.05;;
16845;SDS011;8539;53.188;8.696;2023-06-14T02:10:16;4.13;;;2.97;;
16845;SDS011;8539;53.188;8.696;2023-06-14T02:12:43;5.32;;;3.08;;
16845;SDS011;8539;53.188;8.696;2023-06-14T02:15:09;5.57;;;3.15;;
16845;SDS011;8539;53.188;8.696;2023-06-14T02:17:45;6.15;;;3.55;;
16845;SDS011;8539;53.188;8.696;2023-06-14T02:20:12;9.77;;;3.53;;
16845;SDS011;8539;53.188;8.696;2023-06-14T02:22:39;4.47;;;3.08;;
16845;SDS011;8539;53.188;8.696;2023-06-14T02:25:06;6.75;;;2.55;;
16845;SDS011;8539;53.188;8.696;2023-06-14T02:27:33;6.05;;;3.30;;
16845;SDS011;8539;53.188;8.696;2023-06-14T02:29:59;3.97;;;2.67;;
16845;SDS011;8539;53.188;8.696;2023-06-14T02:32:26;6.13;;;3.58;;
16845;SDS011;8539;53.188;8.696;2023-06-14T02:34:53;5.07;;;3.30;;
16845;SDS011;8539;53.188;8.696;2023-06-14T02:37:20;7.55;;;3.58;;
16845;SDS011;8539;53.188;8.696;2023-06-14T02:39:46;4.35;;;3.00;;
16845;SDS011;8539;53.188;8.696;2023-06-14T02:42:12;9.80;;;3.47;;
16845;SDS011;8539;53.188;8.696;2023-06-14T02:44:38;7.30;;;2.80;;
16845;SDS011;8539;53.188;8.696;2023-06-14T02:47:04;4.55;;;3.42;;
16845;SDS011;8539;53.188;8.696;2023-06-14T02:49:31;5.88;;;2.97;;
16845;SDS011;8539;53.188;8.696;2023-06-14T02:51:57;6.85;;;3.10;;
16845;SDS011;8539;53.188;8.696;2023-06-14T02:54:23;7.90;;;3.80;;
16845;SDS011;8539;53.188;8.696;2023-06-14T02:56:49;5.95;;;2.72;;
16845;SDS011;8539;53.188;8.696;2023-06-14T02:59:16;3.85;;;3.10;;
16845;SDS011;8539;53.188;8.696;2023-06-14T03:01:42;8.32;;;3.45;;
16845;SDS011;8539;53.188;8.696;2023-06-14T03:04:08;7.30;;;3.60;;
16845;SDS011;8539;53.188;8.696;2023-06-14T03:06:35;7.97;;;3.30;;
16845;SDS011;8539;53.188;8.696;2023-06-14T03:09:02;5.47;;;3.47;;
16845;SDS011;8539;53.188;8.696;2023-06-14T03:11:31;6.05;;;3.33;;
16845;SDS011;8539;53.188;8.696;2023-06-14T03:13:58;5.63;;;3.22;;
16845;SDS011;8539;53.188;8.696;2023-06-14T03:16:24;9.68;;;3.70;;
16845;SDS011;8539;53.188;8.696;2023-06-14T03:18:51;5.82;;;3.28;;
16845;SDS011;8539;53.188;8.696;2023-06-14T03:21:18;15.55;;;3.67;;
16845;SDS011;8539;53.188;8.696;2023-06-14T03:23:46;6.60;;;3.40;;
16845;SDS011;8539;53.188;8.696;2023-06-14T03:26:13;5.53;;;3.28;;
16845;SDS011;8539;53.188;8.696;2023-06-14T03:28:40;7.80;;;3.83;;
16845;SDS011;8539;53.188;8.696;2023-06-14T03:31:07;6.25;;;3.55;;
16845;SDS011;8539;53.188;8.696;2023-06-14T03:33:34;6.28;;;3.60;;
16845;SDS011;8539;53.188;8.696;2023-06-14T03:36:01;5.95;;;3.53;;
16845;SDS011;8539;53.188;8.696;2023-06-14T03:38:28;5.60;;;3.35;;
16845;SDS011;8539;53.188;8.696;2023-06-14T03:40:54;7.18;;;3.85;;
16845;SDS011;8539;53.188;8.696;2023-06-14T03:43:20;4.40;;;3.22;;
16845;SDS011;8539;53.188;8.696;2023-06-14T03:45:46;5.65;;;3.03;;
16845;SDS011;8539;53.188;8.696;2023-06-14T03:48:12;8.95;;;3.80;;
16845;SDS011;8539;53.188;8.696;2023-06-14T03:50:38;5.00;;;3.25;;
16845;SDS011;8539;53.188;8.696;2023-06-14T03:53:05;7.32;;;3.80;;
16845;SDS011;8539;53.188;8.696;2023-06-14T03:55:32;6.10;;;3.58;;
16845;SDS011;8539;53.188;8.696;2023-06-14T03:57:58;4.30;;;3.17;;
16845;SDS011;8539;53.188;8.696;2023-06-14T04:00:25;5.53;;;3.53;;
16845;SDS011;8539;53.188;8.696;2023-06-14T04:02:52;5.15;;;2.85;;
16845;SDS011;8539;53.188;8.696;2023-06-14T04:05:19;5.15;;;4.00;;
16845;SDS011;8539;53.188;8.696;2023-06-14T04:07:45;4.05;;;3.00;;
16845;SDS011;8539;53.188;8.696;2023-06-14T04:10:14;5.70;;;3.33;;
16845;SDS011;8539;53.188;8.696;2023-06-14T04:12:41;7.22;;;3.17;;
16845;SDS011;8539;53.188;8.696;2023-06-14T04:15:08;6.20;;;2.95;;
16845;SDS011;8539;53.188;8.696;2023-06-14T04:17:36;4.15;;;2.92;;
16845;SDS011;8539;53.188;8.696;2023-06-14T04:20:02;6.05;;;3.42;;
16845;SDS011;8539;53.188;8.696;2023-06-14T04:22:33;7.82;;;3.63;;
16845;SDS011;8539;53.188;8.696;2023-06-14T04:25:00;8.90;;;3.70;;
16845;SDS011;8539;53.188;8.696;2023-06-14T04:27:26;6.22;;;4.20;;
16845;SDS011;8539;53.188;8.696;2023-06-14T04:29:53;6.07;;;3.78;;
16845;SDS011;8539;53.188;8.696;2023-06-14T04:32:23;4.88;;;3.28;;
16845;SDS011;8539;53.188;8.696;2023-06-14T04:34:54;6.15;;;4.18;;
16845;SDS011;8539;53.188;8.696;2023-06-14T04:37:21;6.13;;;3.47;;
16845;SDS011;8539;53.188;8.696;2023-06-14T04:39:48;6.68;;;4.00;;
16845;SDS011;8539;53.188;8.696;2023-06-14T04:42:14;8.32;;;3.90;;
16845;SDS011;8539;53.188;8.696;2023-06-14T04:44:42;7.53;;;3.60;;
16845;SDS011;8539;53.188;8.696;2023-06-14T04:47:12;9.63;;;4.22;;
16845;SDS011;8539;53.188;8.696;2023-06-14T04:49:39;5.22;;;3.47;;
16845;SDS011;8539;53.188;8.696;2023-06-14T04:52:06;7.85;;;3.60;;
16845;SDS011;8539;53.188;8.696;2023-06-14T04:54:36;4.93;;;3.15;;
16845;SDS011;8539;53.188;8.696;2023-06-14T04:57:07;5.90;;;3.63;;
16845;SDS011;8539;53.188;8.696;2023-06-14T04:59:34;6.20;;;3.53;;
16845;SDS011;8539;53.188;8.696;2023-06-14T05:02:01;5.05;;;3.10;;
16845;SDS011;8539;53.188;8.696;2023-06-14T05:04:27;7.97;;;3.10;;
16845;SDS011;8539;53.188;8.696;2023-06-14T05:06:54;7.97;;;3.70;;
16845;SDS011;8539;53.188;8.696;2023-06-14T05:09:20;7.65;;;3.72;;
16845;SDS011;8539;53.188;8.696;2023-06-14T05:11:46;4.72;;;3.78;;
16845;SDS011;8539;53.188;8.696;2023-06-14T05:14:13;6.63;;;2.95;;
16845;SDS011;8539;53.188;8.696;2023-06-14T05:16:40;7.05;;;3.33;;
16845;SDS011;8539;53.188;8.696;2023-06-14T05:19:06;6.93;;;3.42;;
16845;SDS011;8539;53.188;8.696;2023-06-14T05:21:32;4.03;;;2.80;;
16845;SDS011;8539;53.188;8.696;2023-06-14T05:24:00;4.53;;;4.03;;
16845;SDS011;8539;53.188;8.696;2023-06-14T05:26:26;8.38;;;3.83;;
16845;SDS011;8539;53.188;8.696;2023-06-14T05:28:56;9.73;;;3.42;;
16845;SDS011;8539;53.188;8.696;2023-06-14T05:31:23;5.45;;;3.30;;
16845;SDS011;8539;53.188;8.696;2023-06-14T05:33:50;4.18;;;2.95;;
16845;SDS011;8539;53.188;8.696;2023-06-14T05:36:17;8.73;;;3.40;;
16845;SDS011;8539;53.188;8.696;2023-06-14T05:38:44;6.72;;;3.70;;
16845;SDS011;8539;53.188;8.696;2023-06-14T05:41:11;6.55;;;3.22;;
16845;SDS011;8539;53.188;8.696;2023-06-14T05:43:37;4.75;;;3.40;;
16845;SDS011;8539;53.188;8.696;2023-06-14T05:46:04;3.55;;;2.65;;
16845;SDS011;8539;53.188;8.696;2023-06-14T05:48:30;3.90;;;2.83;;
16845;SDS011;8539;53.188;8.696;2023-06-14T05:50:56;5.57;;;3.42;;
16845;SDS011;8539;53.188;8.696;2023-06-14T05:53:22;6.45;;;3.30;;
16845;SDS011;8539;53.188;8.696;2023-06-14T05:55:50;5.40;;;3.83;;
16845;SDS011;8539;53.188;8.696;2023-06-14T05:58:20;6.60;;;3.88;;
16845;SDS011;8539;53.188;8.696;2023-06-14T06:00:50;11.38;;;4.22;;
16845;SDS011;8539;53.188;8.696;2023-06-14T06:03:20;6.10;;;3.28;;
16845;SDS011;8539;53.188;8.696;2023-06-14T06:05:46;7.38;;;3.92;;
16845;SDS011;8539;53.188;8.696;2023-06-14T06:08:12;8.18;;;4.00;;
16845;SDS011;8539;53.188;8.696;2023-06-14T06:10:39;5.80;;;3.63;;
16845;SDS011;8539;53.188;8.696;2023-06-14T06:13:05;8.00;;;3.20;;
16845;SDS011;8539;53.188;8.696;2023-06-14T06:15:31;9.73;;;4.60;;
16845;SDS011;8539;53.188;8.696;2023-06-14T06:17:57;5.95;;;3.65;;
16845;SDS011;8539;53.188;8.696;2023-06-14T06:20:23;8.43;;;4.13;;
16845;SDS011;8539;53.188;8.696;2023-06-14T06:22:54;4.32;;;3.42;;
16845;SDS011;8539;53.188;8.696;2023-06-14T06:25:20;4.38;;;3.10;;
16845;SDS011;8539;53.188;8.696;2023-06-14T06:27:47;8.07;;;3.80;;
16845;SDS011;8539;53.188;8.696;2023-06-14T06:30:14;7.72;;;3.60;;
16845;SDS011;8539;53.188;8.696;2023-06-14T06:32:40;7.88;;;3.25;;
16845;SDS011;8539;53.188;8.696;2023-06-14T06:35:06;5.40;;;3.28;;
16845;SDS011;8539;53.188;8.696;2023-06-14T06:37:36;4.40;;;3.22;;
16845;SDS011;8539;53.188;8.696;2023-06-14T06:40:02;5.20;;;2.50;;
16845;SDS011;8539;53.188;8.696;2023-06-14T06:42:31;5.80;;;3.20;;
16845;SDS011;8539;53.188;8.696;2023-06-14T06:44:57;4.88;;;3.17;;
16845;SDS011;8539;53.188;8.696;2023-06-14T06:47:23;4.97;;;2.70;;
16845;SDS011;8539;53.188;8.696;2023-06-14T06:49:50;2.88;;;2.58;;
16845;SDS011;8539;53.188;8.696;2023-06-14T06:52:16;4.15;;;2.97;;
16845;SDS011;8539;53.188;8.696;2023-06-14T06:54:42;6.75;;;3.08;;
16845;SDS011;8539;53.188;8.696;2023-06-14T06:57:08;3.70;;;2.45;;
16845;SDS011;8539;53.188;8.696;2023-06-14T06:59:36;7.35;;;2.78;;
16845;SDS011;8539;53.188;8.696;2023-06-14T07:02:02;4.07;;;3.05;;
16845;SDS011;8539;53.188;8.696;2023-06-14T07:04:29;5.43;;;2.30;;
16845;SDS011;8539;53.188;8.696;2023-06-14T07:06:55;3.00;;;2.47;;
16845;SDS011;8539;53.188;8.696;2023-06-14T07:09:21;6.18;;;3.25;;
16845;SDS011;8539;53.188;8.696;2023-06-14T07:11:48;4.70;;;2.60;;
16845;SDS011;8539;53.188;8.696;2023-06-14T07:14:14;7.82;;;3.17;;
16845;SDS011;8539;53.188;8.696;2023-06-14T07:16:40;4.65;;;2.85;;
16845;SDS011;8539;53.188;8.696;2023-06-14T07:19:06;6.90;;;2.55;;
16845;SDS011;8539;53.188;8.696;2023-06-14T07:21:34;3.92;;;2.15;;
16845;SDS011;8539;53.188;8.696;2023-06-14T07:24:03;4.53;;;2.20;;
16845;SDS011;8539;53.188;8.696;2023-06-14T07:26:33;6.60;;;2.30;;
16845;SDS011;8539;53.188;8.696;2023-06-14T07:29:00;4.10;;;2.58;;
16845;SDS011;8539;53.188;8.696;2023-06-14T07:31:27;4.40;;;2.50;;
16845;SDS011;8539;53.188;8.696;2023-06-14T07:33:53;2.58;;;2.00;;
16845;SDS011;8539;53.188;8.696;2023-06-14T07:36:20;4.13;;;1.90;;
16845;SDS011;8539;53.188;8.696;2023-06-14T07:38:46;2.63;;;1.92;;
16845;SDS011;8539;53.188;8.696;2023-06-14T07:41:12;3.40;;;2.20;;
16845;SDS011;8539;53.188;8.696;2023-06-14T07:43:38;6.10;;;2.00;;
16845;SDS011;8539;53.188;8.696;2023-06-14T07:46:04;3.90;;;1.95;;
16845;SDS011;8539;53.188;8.696;2023-06-14T07:48:30;10.55;;;2.20;;
16845;SDS011;8539;53.188;8.696;2023-06-14T07:50:57;2.78;;;1.63;;
16845;SDS011;8539;53.188;8.696;2023-06-14T07:53:23;3.05;;;2.45;;
16845;SDS011;8539;53.188;8.696;2023-06-14T07:55:51;3.03;;;2.15;;
16845;SDS011;8539;53.188;8.696;2023-06-14T07:58:18;4.85;;;1.98;;
16845;SDS011;8539;53.188;8.696;2023-06-14T08:00:44;2.65;;;1.98;;
16845;SDS011;8539;53.188;8.696;2023-06-14T08:03:12;3.25;;;2.05;;
16845;SDS011;8539;53.188;8.696;2023-06-14T08:05:38;4.70;;;1.95;;
16845;SDS011;8539;53.188;8.696;2023-06-14T08:08:04;2.30;;;1.80;;
16845;SDS011;8539;53.188;8.696;2023-06-14T08:10:30;2.38;;;2.17;;
16845;SDS011;8539;53.188;8.696;2023-06-14T08:12:56;5.05;;;2.00;;
16845;SDS011;8539;53.188;8.696;2023-06-14T08:15:22;1.65;;;1.48;;
16845;SDS011;8539;53.188;8.696;2023-06-14T08:17:48;1.98;;;1.75;;
16845;SDS011;8539;53.188;8.696;2023-06-14T08:20:15;2.00;;;1.55;;
16845;SDS011;8539;53.188;8.696;2023-06-14T08:22:42;3.85;;;2.30;;
16845;SDS011;8539;53.188;8.696;2023-06-14T08:25:08;2.90;;;1.60;;
16845;SDS011;8539;53.188;8.696;2023-06-14T08:27:35;1.90;;;1.80;;
16845;SDS011;8539;53.188;8.696;2023-06-14T08:30:01;2.88;;;1.60;;
16845;SDS011;8539;53.188;8.696;2023-06-14T08:32:28;2.40;;;1.85;;
16845;SDS011;8539;53.188;8.696;2023-06-14T08:34:54;4.00;;;2.20;;
16845;SDS011;8539;53.188;8.696;2023-06-14T08:37:20;2.55;;;1.98;;
16845;SDS011;8539;53.188;8.696;2023-06-14T08:39:47;3.00;;;1.95;;
16845;SDS011;8539;53.188;8.696;2023-06-14T08:42:14;3.38;;;1.65;;
16845;SDS011;8539;53.188;8.696;2023-06-14T08:44:41;1.80;;;1.70;;
16845;SDS011;8539;53.188;8.696;2023-06-14T08:47:07;4.25;;;2.20;;
16845;SDS011;8539;53.188;8.696;2023-06-14T08:49:36;2.88;;;1.80;;
16845;SDS011;8539;53.188;8.696;2023-06-14T08:52:03;9.25;;;2.17;;
16845;SDS011;8539;53.188;8.696;2023-06-14T08:54:33;3.33;;;1.70;;
16845;SDS011;8539;53.188;8.696;2023-06-14T08:57:05;4.50;;;2.35;;
16845;SDS011;8539;53.188;8.696;2023-06-14T08:59:33;2.10;;;1.90;;
16845;SDS011;8539;53.188;8.696;2023-06-14T09:02:05;3.00;;;1.92;;
16845;SDS011;8539;53.188;8.696;2023-06-14T09:04:32;4.25;;;2.00;;
16845;SDS011;8539;53.188;8.696;2023-06-14T09:06:58;4.03;;;2.10;;
16845;SDS011;8539;53.188;8.696;2023-06-14T09:09:24;3.05;;;2.22;;
16845;SDS011;8539;53.188;8.696;2023-06-14T09:11:51;4.47;;;2.38;;
16845;SDS011;8539;53.188;8.696;2023-06-14T09:14:18;2.50;;;1.60;;
16845;SDS011;8539;53.188;8.696;2023-06-14T09:16:44;1.83;;;1.67;;
16845;SDS011;8539;53.188;8.696;2023-06-14T09:19:14;2.13;;;1.75;;
16845;SDS011;8539;53.188;8.696;2023-06-14T09:21:50;3.08;;;2.00;;
16845;SDS011;8539;53.188;8.696;2023-06-14T09:24:18;2.38;;;2.05;;
16845;SDS011;8539;53.188;8.696;2023-06-14T09:26:48;4.70;;;2.17;;
16845;SDS011;8539;53.188;8.696;2023-06-14T09:29:17;2.33;;;2.13;;
16845;SDS011;8539;53.188;8.696;2023-06-14T09:31:47;4.72;;;2.47;;
16845;SDS011;8539;53.188;8.696;2023-06-14T09:34:13;9.55;;;2.72;;
16845;SDS011;8539;53.188;8.696;2023-06-14T09:36:41;2.25;;;1.85;;
16845;SDS011;8539;53.188;8.696;2023-06-14T09:39:08;4.18;;;2.10;;
16845;SDS011;8539;53.188;8.696;2023-06-14T09:41:35;3.50;;;2.05;;
16845;SDS011;8539;53.188;8.696;2023-06-14T09:44:03;1.98;;;1.75;;
16845;SDS011;8539;53.188;8.696;2023-06-14T09:46:31;1.92;;;1.80;;
16845;SDS011;8539;53.188;8.696;2023-06-14T09:48:57;2.97;;;2.08;;
16845;SDS011;8539;53.188;8.696;2023-06-14T09:51:24;2.75;;;2.00;;
16845;SDS011;8539;53.188;8.696;2023-06-14T09:53:52;4.15;;;2.08;;
16845;SDS011;8539;53.188;8.696;2023-06-14T09:56:31;2.83;;;2.50;;
16845;SDS011;8539;53.188;8.696;2023-06-14T09:59:04;2.08;;;1.73;;
16845;SDS011;8539;53.188;8.696;2023-06-14T10:01:32;1.75;;;1.60;;
16845;SDS011;8539;53.188;8.696;2023-06-14T10:04:04;3.10;;;2.13;;
16845;SDS011;8539;53.188;8.696;2023-06-14T10:06:31;3.80;;;2.28;;
16845;SDS011;8539;53.188;8.696;2023-06-14T10:09:00;5.32;;;2.63;;
16845;SDS011;8539;53.188;8.696;2023-06-14T10:11:26;2.90;;;2.25;;
16845;SDS011;8539;53.188;8.696;2023-06-14T10:13:54;3.53;;;2.17;;
16845;SDS011;8539;53.188;8.696;2023-06-14T10:21:51;9.65;;;2.25;;
16845;SDS011;8539;53.188;8.696;2023-06-14T10:24:28;2.88;;;2.15;;
16845;SDS011;8539;53.188;8.696;2023-06-14T10:27:05;5.80;;;2.08;;
16845;SDS011;8539;53.188;8.696;2023-06-14T10:32:23;3.20;;;1.83;;
16845;SDS011;8539;53.188;8.696;2023-06-14T10:34:54;4.00;;;2.33;;
16845;SDS011;8539;53.188;8.696;2023-06-14T10:37:25;12.30;;;2.80;;
16845;SDS011;8539;53.188;8.696;2023-06-14T10:39:51;12.65;;;2.33;;
16845;SDS011;8539;53.188;8.696;2023-06-14T10:42:18;3.67;;;2.47;;
16845;SDS011;8539;53.188;8.696;2023-06-14T10:44:51;4.80;;;2.75;;
16845;SDS011;8539;53.188;8.696;2023-06-14T10:50:08;3.58;;;2.50;;
16845;SDS011;8539;53.188;8.696;2023-06-14T10:52:39;5.43;;;2.55;;
16845;SDS011;8539;53.188;8.696;2023-06-14T10:55:16;3.25;;;2.25;;
16845;SDS011;8539;53.188;8.696;2023-06-14T10:57:47;6.28;;;2.70;;
16845;SDS011;8539;53.188;8.696;2023-06-14T11:00:22;3.15;;;2.33;;
16845;SDS011;8539;53.188;8.696;2023-06-14T11:10:50;7.32;;;2.47;;
16845;SDS011;8539;53.188;8.696;2023-06-14T11:13:19;4.18;;;2.70;;
16845;SDS011;8539;53.188;8.696;2023-06-14T11:15:49;6.78;;;2.35;;
16845;SDS011;8539;53.188;8.696;2023-06-14T11:18:18;6.80;;;2.60;;
16845;SDS011;8539;53.188;8.696;2023-06-14T11:20:46;5.45;;;2.80;;
16845;SDS011;8539;53.188;8.696;2023-06-14T11:23:13;3.70;;;2.17;;
16845;SDS011;8539;53.188;8.696;2023-06-14T11:25:39;4.72;;;2.47;;
16845;SDS011;8539;53.188;8.696;2023-06-14T11:28:05;5.10;;;2.75;;
16845;SDS011;8539;53.188;8.696;2023-06-14T11:30:32;2.78;;;1.70;;
16845;SDS011;8539;53.188;8.696;2023-06-14T11:32:58;6.25;;;2.38;;
16845;SDS011;8539;53.188;8.696;2023-06-14T11:35:25;4.25;;;2.13;;
16845;SDS011;8539;53.188;8.696;2023-06-14T11:37:55;9.43;;;3.17;;
16845;SDS011;8539;53.188;8.696;2023-06-14T11:40:26;5.30;;;2.33;;
16845;SDS011;8539;53.188;8.696;2023-06-14T11:42:59;6.88;;;1.90;;
16845;SDS011;8539;53.188;8.696;2023-06-14T11:45:26;3.17;;;2.88;;
16845;SDS011;8539;53.188;8.696;2023-06-14T11:47:57;6.20;;;2.63;;
16845;SDS011;8539;53.188;8.696;2023-06-14T11:50:28;7.07;;;2.75;;
16845;SDS011;8539;53.188;8.696;2023-06-14T11:52:54;6.07;;;2.67;;
16845;SDS011;8539;53.188;8.696;2023-06-14T11:55:37;4.25;;;2.63;;
16845;SDS011;8539;53.188;8.696;2023-06-14T11:58:08;3.08;;;2.30;;
16845;SDS011;8539;53.188;8.696;2023-06-14T12:00:36;5.00;;;3.00;;
16845;SDS011;8539;53.188;8.696;2023-06-14T12:03:03;7.63;;;2.60;;
16845;SDS011;8539;53.188;8.696;2023-06-14T12:05:29;6.13;;;2.33;;
16845;SDS011;8539;53.188;8.696;2023-06-14T12:08:02;5.20;;;2.97;;
16845;SDS011;8539;53.188;8.696;2023-06-14T12:10:31;6.43;;;2.63;;
16845;SDS011;8539;53.188;8.696;2023-06-14T12:13:07;4.00;;;2.25;;
16845;SDS011;8539;53.188;8.696;2023-06-14T12:15:33;3.95;;;2.20;;
16845;SDS011;8539;53.188;8.696;2023-06-14T12:18:00;2.63;;;2.33;;
16845;SDS011;8539;53.188;8.696;2023-06-14T12:20:29;3.35;;;2.33;;
16845;SDS011;8539;53.188;8.696;2023-06-14T12:22:58;3.88;;;2.83;;
16845;SDS011;8539;53.188;8.696;2023-06-14T12:28:05;3.58;;;2.45;;
16845;SDS011;8539;53.188;8.696;2023-06-14T12:30:35;4.68;;;2.63;;
16845;SDS011;8539;53.188;8.696;2023-06-14T12:33:05;3.00;;;2.70;;
16845;SDS011;8539;53.188;8.696;2023-06-14T12:35:32;6.68;;;2.40;;
16845;SDS011;8539;53.188;8.696;2023-06-14T12:37:59;5.00;;;2.40;;
16845;SDS011;8539;53.188;8.696;2023-06-14T12:40:25;4.75;;;2.92;;
16845;SDS011;8539;53.188;8.696;2023-06-14T12:42:52;5.15;;;2.50;;
16845;SDS011;8539;53.188;8.696;2023-06-14T12:45:18;3.65;;;2.42;;
16845;SDS011;8539;53.188;8.696;2023-06-14T12:47:44;2.50;;;2.30;;
16845;SDS011;8539;53.188;8.696;2023-06-14T12:50:11;4.90;;;2.72;;
16845;SDS011;8539;53.188;8.696;2023-06-14T12:52:37;3.78;;;2.83;;
16845;SDS011;8539;53.188;8.696;2023-06-14T12:55:06;3.35;;;2.35;;
16845;SDS011;8539;53.188;8.696;2023-06-14T12:57:32;7.90;;;3.20;;
16845;SDS011;8539;53.188;8.696;2023-06-14T13:00:02;3.13;;;1.98;;
16845;SDS011;8539;53.188;8.696;2023-06-14T13:02:28;3.08;;;2.40;;
16845;SDS011;8539;53.188;8.696;2023-06-14T13:04:54;3.45;;;2.70;;
16845;SDS011;8539;53.188;8.696;2023-06-14T13:07:21;2.90;;;2.65;;
16845;SDS011;8539;53.188;8.696;2023-06-14T13:09:47;5.28;;;2.72;;
16845;SDS011;8539;53.188;8.696;2023-06-14T13:12:13;5.43;;;2.95;;
16845;SDS011;8539;53.188;8.696;2023-06-14T13:14:40;4.97;;;3.17;;
16845;SDS011;8539;53.188;8.696;2023-06-14T13:17:09;2.72;;;2.20;;
16845;SDS011;8539;53.188;8.696;2023-06-14T13:19:37;4.10;;;2.70;;
16845;SDS011;8539;53.188;8.696;2023-06-14T13:22:03;3.03;;;2.10;;
16845;SDS011;8539;53.188;8.696;2023-06-14T13:24:30;5.68;;;3.33;;
16845;SDS011;8539;53.188;8.696;2023-06-14T13:26:56;3.65;;;2.67;;
16845;SDS011;8539;53.188;8.696;2023-06-14T13:29:23;6.80;;;2.80;;
16845;SDS011;8539;53.188;8.696;2023-06-14T13:31:50;5.53;;;3.15;;
16845;SDS011;8539;53.188;8.696;2023-06-14T13:34:17;4.93;;;2.50;;
16845;SDS011;8539;53.188;8.696;2023-06-14T13:36:43;6.63;;;3.28;;
16845;SDS011;8539;53.188;8.696;2023-06-14T13:39:09;5.80;;;3.08;;
16845;SDS011;8539;53.188;8.696;2023-06-14T13:41:36;4.38;;;2.60;;
16845;SDS011;8539;53.188;8.696;2023-06-14T13:44:02;5.95;;;2.50;;
16845;SDS011;8539;53.188;8.696;2023-06-14T13:46:31;3.58;;;2.55;;
16845;SDS011;8539;53.188;8.696;2023-06-14T13:48:57;5.90;;;2.85;;
16845;SDS011;8539;53.188;8.696;2023-06-14T13:51:23;6.13;;;2.80;;
16845;SDS011;8539;53.188;8.696;2023-06-14T13:53:52;5.97;;;2.63;;
16845;SDS011;8539;53.188;8.696;2023-06-14T13:56:18;2.63;;;2.40;;
16845;SDS011;8539;53.188;8.696;2023-06-14T13:58:45;4.63;;;2.22;;
16845;SDS011;8539;53.188;8.696;2023-06-14T14:01:11;2.53;;;2.25;;
16845;SDS011;8539;53.188;8.696;2023-06-14T14:03:37;4.18;;;2.17;;
16845;SDS011;8539;53.188;8.696;2023-06-14T14:06:04;4.03;;;2.33;;
16845;SDS011;8539;53.188;8.696;2023-06-14T14:08:31;5.65;;;2.90;;
16845;SDS011;8539;53.188;8.696;2023-06-14T14:10:57;3.78;;;2.65;;
16845;SDS011;8539;53.188;8.696;2023-06-14T14:13:23;6.47;;;3.22;;
16845;SDS011;8539;53.188;8.696;2023-06-14T14:15:50;3.38;;;2.30;;
16845;SDS011;8539;53.188;8.696;2023-06-14T14:18:16;3.13;;;2.25;;
16845;SDS011;8539;53.188;8.696;2023-06-14T14:20:42;4.10;;;2.05;;
16845;SDS011;8539;53.188;8.696;2023-06-14T14:23:09;3.58;;;2.42;;
16845;SDS011;8539;53.188;8.696;2023-06-14T14:25:35;6.93;;;2.50;;
16845;SDS011;8539;53.188;8.696;2023-06-14T14:28:02;6.05;;;3.47;;
16845;SDS011;8539;53.188;8.696;2023-06-14T14:30:28;11.38;;;2.83;;
16845;SDS011;8539;53.188;8.696;2023-06-14T14:32:54;3.15;;;2.33;;
16845;SDS011;8539;53.188;8.696;2023-06-14T14:35:21;7.03;;;2.67;;
16845;SDS011;8539;53.188;8.696;2023-06-14T14:37:49;7.43;;;2.78;;
16845;SDS011;8539;53.188;8.696;2023-06-14T14:40:15;4.13;;;2.90;;
16845;SDS011;8539;53.188;8.696;2023-06-14T14:42:41;4.07;;;2.83;;
16845;SDS011;8539;53.188;8.696;2023-06-14T14:45:07;6.07;;;3.22;;
16845;SDS011;8539;53.188;8.696;2023-06-14T14:47:33;4.72;;;2.95;;
16845;SDS011;8539;53.188;8.696;2023-06-14T14:49:59;3.65;;;2.90;;
16845;SDS011;8539;53.188;8.696;2023-06-14T14:52:25;2.92;;;2.40;;
16845;SDS011;8539;53.188;8.696;2023-06-14T14:54:52;4.53;;;3.05;;
16845;SDS011;8539;53.188;8.696;2023-06-14T14:57:19;4.97;;;2.50;;
16845;SDS011;8539;53.188;8.696;2023-06-14T14:59:45;6.97;;;2.70;;
16845;SDS011;8539;53.188;8.696;2023-06-14T15:02:11;2.97;;;2.50;;
16845;SDS011;8539;53.188;8.696;2023-06-14T15:04:37;5.30;;;2.58;;
16845;SDS011;8539;53.188;8.696;2023-06-14T15:07:03;5.38;;;2.58;;
16845;SDS011;8539;53.188;8.696;2023-06-14T15:09:29;5.05;;;2.63;;
16845;SDS011;8539;53.188;8.696;2023-06-14T15:11:55;6.95;;;3.30;;
16845;SDS011;8539;53.188;8.696;2023-06-14T15:14:21;4.28;;;2.40;;
16845;SDS011;8539;53.188;8.696;2023-06-14T15:16:47;4.28;;;2.72;;
16845;SDS011;8539;53.188;8.696;2023-06-14T15:19:13;2.90;;;2.53;;
16845;SDS011;8539;53.188;8.696;2023-06-14T15:21:39;8.65;;;2.90;;
16845;SDS011;8539;53.188;8.696;2023-06-14T15:24:06;3.17;;;2.47;;
16845;SDS011;8539;53.188;8.696;2023-06-14T15:26:32;4.13;;;2.50;;